Time;durP1;ratioP1;P1;durP2;ratioP2;P2;SDS_P1;SDS_P2;PMS_P1;PMS_P2;Temp;Humidity;BMP_temperature;BMP_pressure;BME280_temperature;BME280_humidity;BME280_pressure;Samples;Min_cycle;Max_cycle;Signal;HPM_P1;HPM_P2
2022/07/03 00:00:32;;;;;;;;;;;;;;;24.63;50.93;100022.31;3157969;28;20011;-66
2022/07/03 00:02:03;;;;;;;;;;;;;;;24.61;50.51;100016.31;3157880;28;19928;-67
2022/07/03 00:03:34;;;;;;;;;;;;;;;24.65;50.38;100016.84;3157966;28;19928;-67
2022/07/03 00:05:06;;;;;;;;;;;;;;;24.65;50.67;100015.00;3164481;28;19949;-66
2022/07/03 00:06:38;;;;;;;;;;;;;;;24.66;50.84;100010.50;3157661;28;19925;-67
2022/07/03 00:08:09;;;;;;;;;;;;;;;24.66;50.73;100014.00;3159436;28;19982;-66
2022/07/03 00:09:41;;;;;;;;;;;;;;;24.71;50.59;100016.22;3158060;28;19924;-66
2022/07/03 00:11:13;;;;;;;;;;;;;;;24.70;50.51;100011.91;3157928;28;20355;-67
2022/07/03 00:12:44;;;;;;;;;;;;;;;24.70;50.22;100004.75;3157856;28;19925;-67
2022/07/03 00:14:16;;;;;;;;;;;;;;;24.75;50.43;100007.75;3157761;28;19931;-67
2022/07/03 00:15:49;;;;;;;;;;;;;;;24.79;49.93;100005.63;3158070;28;19924;-67
2022/07/03 00:17:20;;;;;;;;;;;;;;;24.81;50.21;100005.47;3157927;28;20317;-67
2022/07/03 00:18:52;;;;;;;;;;;;;;;24.82;50.05;100002.66;3157911;28;20246;-66
2022/07/03 00:20:25;;;;;;;;;;;;;;;24.84;49.65;100005.97;3158090;28;19936;-66
2022/07/03 00:21:57;;;;;;;;;;;;;;;24.85;49.83;100001.50;3157855;28;19970;-67
2022/07/03 00:23:29;;;;;;;;;;;;;;;24.86;49.86;100000.50;3157711;28;19932;-67
2022/07/03 00:25:02;;;;;;;;;;;;;;;24.87;49.75;99999.50;3158601;28;19924;-67
2022/07/03 00:26:34;;;;;;;;;;;;;;;24.86;49.55;100004.00;3160395;28;20319;-67
2022/07/03 00:28:07;;;;;;;;;;;;;;;24.85;49.50;99996.19;3160324;28;19924;-67
2022/07/03 00:29:40;;;;;;;;;;;;;;;24.85;49.71;99993.53;3160374;28;19947;-67
2022/07/03 00:31:13;;;;;;;;;;;;;;;24.86;49.70;99987.19;3160375;28;19928;-66
2022/07/03 00:32:45;;;;;;;;;;;;;;;24.85;49.30;99994.34;3160736;28;19935;-66
2022/07/03 00:34:18;;;;;;;;;;;;;;;24.85;49.63;99990.84;3160267;28;19993;-67
2022/07/03 00:35:52;;;;;;;;;;;;;;;24.83;49.73;99992.84;3160446;28;20329;-67
2022/07/03 00:37:25;;;;;;;;;;;;;;;24.71;50.88;99982.44;3160558;28;19935;-67
2022/07/03 00:38:56;;;;;;;;;;;;;;;24.60;51.88;99984.50;3160544;28;19935;-66
2022/07/03 00:40:28;;;;;;;;;;;;;;;24.47;52.28;99984.91;3160310;28;19931;-67
2022/07/03 00:42:01;;;;;;;;;;;;;;;24.41;52.85;99980.19;3160206;28;20421;-66
2022/07/03 00:43:32;;;;;;;;;;;;;;;24.33;52.69;99980.94;3160195;28;19932;-67
2022/07/03 00:45:07;;;;;;;;;;;;;;;24.28;53.25;99983.22;3160481;28;20014;-67
2022/07/03 00:46:41;;;;;;;;;;;;;;;24.20;53.39;99984.00;3160068;28;19928;-66
2022/07/03 00:48:15;;;;;;;;;;;;;;;24.12;54.27;99980.44;3159947;28;20357;-67
2022/07/03 00:49:48;;;;;;;;;;;;;;;24.05;54.10;99972.22;3159999;28;19924;-66
2022/07/03 00:51:20;;;;;;;;;;;;;;;23.98;55.02;99968.47;3160118;28;20327;-66
2022/07/03 00:52:53;;;;;;;;;;;;;;;23.89;55.37;99967.56;3160228;28;19932;-66
2022/07/03 00:54:25;;;;;;;;;;;;;;;23.84;55.38;99972.53;3160053;28;19924;-66
2022/07/03 00:55:57;;;;;;;;;;;;;;;23.81;55.62;99965.69;3160074;28;20562;-66
2022/07/03 00:57:29;;;;;;;;;;;;;;;23.78;55.92;99970.44;3160128;28;19928;-66
2022/07/03 00:59:01;;;;;;;;;;;;;;;23.69;56.96;99965.97;3159914;28;19977;-67
2022/07/03 01:00:35;;;;;;;;;;;;;;;23.60;57.51;99965.06;3159808;28;19928;-67
2022/07/03 01:02:09;;;;;;;;;;;;;;;23.57;57.25;99968.00;3160179;28;19947;-67
2022/07/03 01:03:45;;;;;;;;;;;;;;;23.58;56.70;99970.53;3159393;28;19932;-66
2022/07/03 01:05:20;;;;;;;;;;;;;;;23.61;56.76;99964.09;3166433;28;19924;-67
2022/07/03 01:06:53;;;;;;;;;;;;;;;23.64;56.09;99969.09;3159590;28;20402;-66
2022/07/03 01:08:28;;;;;;;;;;;;;;;23.68;55.91;99957.19;3161006;28;19934;-67
2022/07/03 01:10:04;;;;;;;;;;;;;;;23.73;55.72;99962.09;3160009;28;20505;-66
2022/07/03 01:11:39;;;;;;;;;;;;;;;23.76;55.92;99964.44;3159956;28;19935;-66
2022/07/03 01:13:13;;;;;;;;;;;;;;;23.79;55.91;99958.81;3160184;28;20019;-67
2022/07/03 01:14:49;;;;;;;;;;;;;;;23.80;55.78;99958.66;3159867;28;19924;-66
2022/07/03 01:16:25;;;;;;;;;;;;;;;23.80;56.30;99958.66;3159909;28;19924;-66
2022/07/03 01:18:04;;;;;;;;;;;;;;;23.79;56.75;99953.50;3159653;28;19928;-67
2022/07/03 01:19:41;;;;;;;;;;;;;;;23.75;57.24;99960.09;3159708;28;19928;-66
2022/07/03 01:21:16;;;;;;;;;;;;;;;23.71;57.42;99954.25;3159858;28;20672;-66
2022/07/03 01:22:50;;;;;;;;;;;;;;;23.63;57.89;99956.78;3159925;28;19927;-66
2022/07/03 01:24:37;;;;;;;;;;;;;;;23.56;58.36;99959.22;3159876;28;19924;-67
2022/07/03 01:26:12;;;;;;;;;;;;;;;23.51;58.85;99955.31;3159572;28;19928;-66
2022/07/03 01:27:48;;;;;;;;;;;;;;;23.47;58.76;99956.63;3159662;28;20393;-66
2022/07/03 01:29:23;;;;;;;;;;;;;;;23.49;58.55;99954.66;3158411;28;19990;-66
2022/07/03 01:30:55;;;;;;;;;;;;;;;23.49;58.75;99957.31;3160081;28;19924;-67
2022/07/03 01:32:27;;;;;;;;;;;;;;;23.47;58.93;99954.78;3159801;28;19932;-66
2022/07/03 01:33:59;;;;;;;;;;;;;;;23.46;58.91;99954.94;3159448;28;19928;-67
2022/07/03 01:35:32;;;;;;;;;;;;;;;23.45;58.87;99958.56;3159031;28;20005;-66
2022/07/03 01:37:05;;;;;;;;;;;;;;;23.43;58.96;99950.75;3159406;28;19946;-66
2022/07/03 01:38:37;;;;;;;;;;;;;;;23.46;58.20;99950.47;3159499;28;19924;-66
2022/07/03 01:40:08;;;;;;;;;;;;;;;23.47;58.85;99957.44;3159766;28;19977;-67
2022/07/03 01:41:41;;;;;;;;;;;;;;;23.47;58.91;99952.13;3159496;28;19924;-67
2022/07/03 01:43:13;;;;;;;;;;;;;;;23.47;59.10;99956.63;3159746;28;19924;-67
2022/07/03 01:44:45;;;;;;;;;;;;;;;23.47;58.70;99951.28;3159300;28;20313;-66
2022/07/03 01:46:18;;;;;;;;;;;;;;;23.47;58.82;99949.47;3159317;28;19924;-66
2022/07/03 01:47:49;;;;;;;;;;;;;;;23.48;58.55;99952.97;3159601;28;20420;-66
2022/07/03 01:49:21;;;;;;;;;;;;;;;23.45;59.01;99948.78;3159294;28;19924;-66
2022/07/03 01:50:53;;;;;;;;;;;;;;;23.40;58.98;99956.38;3159315;28;20607;-67
2022/07/03 01:52:25;;;;;;;;;;;;;;;23.41;59.23;99963.34;3159563;28;19928;-66
2022/07/03 01:53:58;;;;;;;;;;;;;;;23.41;58.61;99954.56;3159297;28;19928;-67
2022/07/03 01:55:33;;;;;;;;;;;;;;;23.41;59.37;99958.03;3159285;28;19924;-66
2022/07/03 01:57:07;;;;;;;;;;;;;;;23.38;58.96;99964.47;3159667;28;20007;-66
2022/07/03 01:58:37;;;;;;;;;;;;;;;23.39;58.79;99965.31;3159211;28;19928;-67
2022/07/03 02:00:09;;;;;;;;;;;;;;;23.41;58.78;99957.22;3158718;28;20018;-67
2022/07/03 02:01:45;;;;;;;;;;;;;;;23.37;59.15;99962.81;3159256;28;19932;-66
2022/07/03 02:03:22;;;;;;;;;;;;;;;23.37;58.88;99960.16;3158816;28;19932;-67
2022/07/03 02:04:58;;;;;;;;;;;;;;;23.41;58.51;99954.56;3158007;28;20318;-67
2022/07/03 02:06:32;;;;;;;;;;;;;;;23.37;58.93;99940.72;3159471;28;19924;-67
2022/07/03 02:08:07;;;;;;;;;;;;;;;23.42;58.99;99953.56;3160628;28;19932;-66
2022/07/03 02:09:44;;;;;;;;;;;;;;;23.41;58.89;99951.88;3159003;28;20365;-67
2022/07/03 02:11:17;;;;;;;;;;;;;;;23.38;59.50;99966.31;3159029;28;19932;-66
2022/07/03 02:12:52;;;;;;;;;;;;;;;23.36;59.48;99958.47;3159464;28;20360;-66
2022/07/03 02:14:25;;;;;;;;;;;;;;;23.36;59.09;99966.44;3159134;28;19935;-67
2022/07/03 02:15:58;;;;;;;;;;;;;;;23.35;59.20;99964.78;3158141;28;19985;-66
2022/07/03 02:17:36;;;;;;;;;;;;;;;23.37;59.03;99972.63;3002330;28;20321;-66
2022/07/03 02:19:10;;;;;;;;;;;;;;;23.37;58.85;99970.78;3159260;28;19963;-67
2022/07/03 02:20:47;;;;;;;;;;;;;;;23.37;59.25;99973.44;3159297;28;20329;-66
2022/07/03 02:22:18;;;;;;;;;;;;;;;23.38;58.97;99974.28;3146346;28;19935;-67
2022/07/03 02:23:54;;;;;;;;;;;;;;;23.35;58.71;99972.75;3157763;28;19924;-67
2022/07/03 02:25:33;;;;;;;;;;;;;;;23.31;59.26;99968.72;3158827;28;20318;-66
2022/07/03 02:27:06;;;;;;;;;;;;;;;23.26;59.53;99965.66;3159034;28;19989;-66
2022/07/03 02:28:56;;;;;;;;;;;;;;;23.23;59.90;99968.63;3158935;28;20336;-66
2022/07/03 02:30:29;;;;;;;;;;;;;;;23.16;60.22;99967.53;3158913;28;19982;-66
2022/07/03 02:32:02;;;;;;;;;;;;;;;23.13;60.41;99967.81;3158761;28;19928;-66
2022/07/03 02:33:37;;;;;;;;;;;;;;;23.10;60.73;99970.75;3158753;28;19928;-66
2022/07/03 02:35:11;;;;;;;;;;;;;;;23.04;60.33;99971.34;3158913;28;19985;-66
2022/07/03 02:36:46;;;;;;;;;;;;;;;22.99;60.99;99976.28;3158940;28;19924;-67
2022/07/03 02:38:19;;;;;;;;;;;;;;;22.96;61.40;99977.38;3158926;28;19930;-67
2022/07/03 02:39:52;;;;;;;;;;;;;;;22.90;61.47;99976.13;3158970;28;20003;-66
2022/07/03 02:41:24;;;;;;;;;;;;;;;22.89;61.10;99974.44;3158602;28;19928;-66
2022/07/03 02:43:02;;;;;;;;;;;;;;;22.88;61.22;99980.72;3159240;28;19924;-66
2022/07/03 02:44:43;;;;;;;;;;;;;;;22.84;61.85;99981.16;3158251;28;19924;-66
2022/07/03 02:48:12;;;;;;;;;;;;;;;22.71;62.00;99984.09;3146181;28;19928;-67
2022/07/03 02:49:48;;;;;;;;;;;;;;;22.68;62.46;99971.13;3158743;28;19959;-67
2022/07/03 02:51:22;;;;;;;;;;;;;;;22.62;63.21;99982.31;3158640;28;19928;-67
2022/07/03 02:52:58;;;;;;;;;;;;;;;22.59;62.68;99977.28;3146225;28;19928;-66
2022/07/03 02:54:32;;;;;;;;;;;;;;;22.55;63.42;99982.06;3157861;28;19924;-66
2022/07/03 02:56:06;;;;;;;;;;;;;;;22.49;63.12;99980.81;3158383;28;19924;-67
2022/07/03 02:57:39;;;;;;;;;;;;;;;22.49;62.97;99982.63;3158445;28;19971;-66
2022/07/03 02:59:20;;;;;;;;;;;;;;;22.49;62.92;99980.81;3158450;28;20305;-67
2022/07/03 03:00:53;;;;;;;;;;;;;;;22.52;62.66;99979.69;3158807;28;20019;-67
2022/07/03 03:02:37;;;;;;;;;;;;;;;22.55;62.45;99981.22;3158513;28;20290;-66
2022/07/03 03:04:10;;;;;;;;;;;;;;;22.55;62.38;99973.25;3158313;28;19940;-67
2022/07/03 03:05:42;;;;;;;;;;;;;;;22.55;62.58;99976.75;3164880;28;20024;-67
2022/07/03 03:07:15;;;;;;;;;;;;;;;22.52;63.01;99973.53;3159937;28;19928;-67
2022/07/03 03:08:48;;;;;;;;;;;;;;;22.52;62.97;99978.84;3158698;28;19985;-66
2022/07/03 03:10:19;;;;;;;;;;;;;;;22.53;62.54;99969.91;3158117;28;19924;-67
2022/07/03 03:11:51;;;;;;;;;;;;;;;22.52;63.04;99974.38;3158337;28;20420;-66
2022/07/03 03:13:26;;;;;;;;;;;;;;;22.45;63.68;99981.22;3158339;28;19977;-66
2022/07/03 03:15:01;;;;;;;;;;;;;;;22.45;63.29;99976.75;3158565;28;20514;-67
2022/07/03 03:16:33;;;;;;;;;;;;;;;22.43;63.57;99978.72;3158231;28;19993;-66
2022/07/03 03:18:07;;;;;;;;;;;;;;;22.40;63.80;99972.84;3158003;28;19924;-66
2022/07/03 03:19:41;;;;;;;;;;;;;;;22.41;63.38;99975.34;3158372;28;20037;-67
2022/07/03 03:21:16;;;;;;;;;;;;;;;22.40;63.10;99973.69;3158494;28;20038;-66
2022/07/03 03:23:00;;;;;;;;;;;;;;;22.43;62.91;99972.56;3158338;28;20371;-67
2022/07/03 03:24:32;;;;;;;;;;;;;;;22.39;63.78;99976.47;3158302;28;19935;-66
2022/07/03 03:26:03;;;;;;;;;;;;;;;22.35;63.87;99964.47;3158087;28;19985;-66
2022/07/03 03:27:35;;;;;;;;;;;;;;;22.31;63.94;99974.53;3158257;28;19993;-67
2022/07/03 03:29:07;;;;;;;;;;;;;;;22.29;64.38;99967.69;3158106;28;19982;-66
2022/07/03 03:30:37;;;;;;;;;;;;;;;22.25;64.52;99975.09;3157980;28;20405;-67
2022/07/03 03:32:11;;;;;;;;;;;;;;;22.18;64.41;99971.31;3158370;28;19931;-66
2022/07/03 03:33:44;;;;;;;;;;;;;;;22.17;64.30;99972.31;3158272;28;19924;-66
2022/07/03 03:35:14;;;;;;;;;;;;;;;22.21;64.06;99973.69;3158057;28;19981;-66
2022/07/03 03:36:46;;;;;;;;;;;;;;;22.22;64.21;99975.38;3155683;28;20019;-66
2022/07/03 03:38:18;;;;;;;;;;;;;;;22.21;64.24;99974.56;3156913;28;19932;-66
2022/07/03 03:39:50;;;;;;;;;;;;;;;22.22;64.06;99976.22;3158258;28;19950;-66
2022/07/03 03:41:21;;;;;;;;;;;;;;;22.25;64.13;99975.09;3158112;28;19924;-66
2022/07/03 03:42:53;;;;;;;;;;;;;;;22.24;63.95;99970.75;3158233;28;20662;-66
2022/07/03 03:44:25;;;;;;;;;;;;;;;22.25;64.07;99969.78;3158283;28;19924;-66
2022/07/03 03:45:56;;;;;;;;;;;;;;;22.24;63.95;99973.41;3157972;28;19928;-66
2022/07/03 03:47:29;;;;;;;;;;;;;;;22.26;64.03;99976.75;3157967;28;19932;-66
2022/07/03 03:49:01;;;;;;;;;;;;;;;22.29;63.70;99973.00;3158088;28;19924;-66
2022/07/03 03:50:33;;;;;;;;;;;;;;;22.29;63.60;99973.84;3157880;28;19924;-66
2022/07/03 03:52:05;;;;;;;;;;;;;;;22.29;63.60;99973.84;3157068;28;20304;-66
2022/07/03 03:53:37;;;;;;;;;;;;;;;22.28;63.76;99974.81;3157906;28;20297;-66
2022/07/03 03:55:09;;;;;;;;;;;;;;;22.30;63.66;99972.84;3158213;28;19932;-66
2022/07/03 03:56:40;;;;;;;;;;;;;;;22.29;63.73;99973.84;3158071;28;19941;-66
2022/07/03 03:58:15;;;;;;;;;;;;;;;22.33;63.25;99977.91;3158016;28;20433;-66
2022/07/03 03:59:47;;;;;;;;;;;;;;;22.34;63.64;99974.25;3157750;28;19924;-66
2022/07/03 04:01:18;;;;;;;;;;;;;;;22.39;63.49;99973.81;3158125;28;19928;-66
2022/07/03 04:02:51;;;;;;;;;;;;;;;22.43;63.19;99972.56;3157913;28;19924;-66
2022/07/03 04:04:24;;;;;;;;;;;;;;;22.42;63.27;99970.88;3158623;28;20463;-66
2022/07/03 04:05:55;;;;;;;;;;;;;;;22.42;63.51;99970.88;3162841;28;19924;-66
2022/07/03 04:07:27;;;;;;;;;;;;;;;22.43;63.38;99973.41;3159163;28;19996;-66
2022/07/03 04:08:59;;;;;;;;;;;;;;;22.43;63.46;99977.88;3157936;28;19935;-66
2022/07/03 04:10:30;;;;;;;;;;;;;;;22.43;63.33;99975.22;3158016;28;19924;-66
2022/07/03 04:12:02;;;;;;;;;;;;;;;22.47;63.01;99979.25;3157733;28;19928;-66
2022/07/03 04:13:34;;;;;;;;;;;;;;;22.47;63.57;99980.09;3158070;28;20446;-66
2022/07/03 04:15:06;;;;;;;;;;;;;;;22.46;63.54;99982.91;3158042;28;19924;-66
2022/07/03 04:16:37;;;;;;;;;;;;;;;22.46;63.63;99978.44;3157755;28;19967;-66
2022/07/03 04:18:10;;;;;;;;;;;;;;;22.48;63.25;99981.78;3157974;28;20320;-66
2022/07/03 04:19:42;;;;;;;;;;;;;;;22.49;63.64;99983.44;3157904;28;19924;-66
2022/07/03 04:21:14;;;;;;;;;;;;;;;22.48;63.77;99984.44;3157837;28;19928;-66
2022/07/03 04:22:45;;;;;;;;;;;;;;;22.45;63.89;99990.03;3158071;28;19971;-65
2022/07/03 04:24:17;;;;;;;;;;;;;;;22.43;64.09;99980.53;3157585;28;20332;-65
2022/07/03 04:25:49;;;;;;;;;;;;;;;22.43;64.09;99978.72;3158094;28;20302;-66
2022/07/03 04:27:20;;;;;;;;;;;;;;;22.46;64.09;99982.91;3157945;28;19928;-66
2022/07/03 04:28:51;;;;;;;;;;;;;;;22.44;64.02;99983.03;3157894;28;20341;-66
2022/07/03 04:30:22;;;;;;;;;;;;;;;22.45;64.20;99987.38;3158085;28;19924;-66
2022/07/03 04:31:54;;;;;;;;;;;;;;;22.48;63.48;99986.28;3157874;28;19932;-66
2022/07/03 04:33:27;;;;;;;;;;;;;;;22.51;63.65;99988.63;3157674;28;19989;-65
2022/07/03 04:34:58;;;;;;;;;;;;;;;22.54;63.58;99991.00;3158168;28;19932;-66
2022/07/03 04:36:30;;;;;;;;;;;;;;;22.54;63.62;99985.69;3158047;28;19931;-66
2022/07/03 04:38:01;;;;;;;;;;;;;;;22.56;63.33;99989.03;3157841;28;19985;-65
2022/07/03 04:39:33;;;;;;;;;;;;;;;22.58;63.32;99991.56;3157596;28;19928;-66
2022/07/03 04:41:05;;;;;;;;;;;;;;;22.59;63.39;99987.91;3157925;28;19924;-66
2022/07/03 04:42:36;;;;;;;;;;;;;;;22.61;63.23;99993.94;3157834;28;19924;-66
2022/07/03 04:44:08;;;;;;;;;;;;;;;22.65;63.23;99990.00;3157632;28;19935;-66
2022/07/03 04:45:39;;;;;;;;;;;;;;;22.68;63.27;99995.00;3157513;28;19935;-66
2022/07/03 04:47:12;;;;;;;;;;;;;;;22.69;63.26;99989.59;3157708;28;20012;-66
2022/07/03 04:48:45;;;;;;;;;;;;;;;22.73;62.84;99986.63;3157237;28;19931;-66
2022/07/03 04:50:17;;;;;;;;;;;;;;;22.75;63.02;99993.47;3157489;28;19928;-66
2022/07/03 04:51:48;;;;;;;;;;;;;;;22.77;62.78;99985.34;3157371;28;20130;-66
2022/07/03 04:53:20;;;;;;;;;;;;;;;22.80;62.44;99988.56;3157387;28;20346;-66
2022/07/03 04:54:52;;;;;;;;;;;;;;;22.78;62.41;99982.56;3157803;28;20002;-66
2022/07/03 04:56:23;;;;;;;;;;;;;;;22.80;62.47;99993.03;3157780;28;20352;-66
2022/07/03 04:57:55;;;;;;;;;;;;;;;22.80;62.56;99985.91;3157459;28;20329;-66
2022/07/03 04:59:27;;;;;;;;;;;;;;;22.84;62.71;99989.13;3157735;28;20386;-66
2022/07/03 05:00:58;;;;;;;;;;;;;;;22.86;62.74;99987.16;3157641;28;20466;-66
2022/07/03 05:02:30;;;;;;;;;;;;;;;22.90;62.65;99984.06;3157538;28;20336;-66
2022/07/03 05:04:03;;;;;;;;;;;;;;;22.96;62.39;99990.66;3157281;28;20576;-66
2022/07/03 05:05:34;;;;;;;;;;;;;;;22.99;62.70;99978.91;3164091;28;20345;-66
2022/07/03 05:07:06;;;;;;;;;;;;;;;23.03;62.90;99985.59;3158344;28;19939;-65
2022/07/03 05:08:38;;;;;;;;;;;;;;;23.06;62.52;99987.97;3157863;28;19924;-65
2022/07/03 05:10:09;;;;;;;;;;;;;;;23.12;62.40;99984.72;3157640;28;19961;-65
2022/07/03 05:11:40;;;;;;;;;;;;;;;23.17;62.14;99982.50;3159245;28;19973;-65
2022/07/03 05:13:12;;;;;;;;;;;;;;;23.21;62.30;99986.50;3159693;28;20014;-65
2022/07/03 05:14:44;;;;;;;;;;;;;;;23.22;62.07;99980.25;3159621;28;19950;-65
2022/07/03 05:16:15;;;;;;;;;;;;;;;23.26;62.13;99988.75;3159890;28;19947;-65
2022/07/03 05:17:47;;;;;;;;;;;;;;;23.30;61.78;99982.16;3159552;28;19924;-65
2022/07/03 05:19:20;;;;;;;;;;;;;;;23.35;61.61;99983.38;3159596;28;19928;-65
2022/07/03 05:20:50;;;;;;;;;;;;;;;23.41;61.36;99989.94;3159837;28;20011;-65
2022/07/03 05:22:22;;;;;;;;;;;;;;;23.44;61.47;99983.47;3159875;28;19928;-65
2022/07/03 05:23:53;;;;;;;;;;;;;;;23.53;61.37;99982.59;3159714;28;19928;-65
2022/07/03 05:25:25;;;;;;;;;;;;;;;23.59;60.83;99984.66;3159686;28;19924;-66
2022/07/03 05:26:57;;;;;;;;;;;;;;;23.63;60.97;99980.72;3159833;28;19928;-66
2022/07/03 05:28:29;;;;;;;;;;;;;;;23.71;60.54;99982.66;3159599;28;19928;-66
2022/07/03 05:30:00;;;;;;;;;;;;;;;23.77;60.52;99984.72;3159538;28;19935;-66
2022/07/03 05:31:32;;;;;;;;;;;;;;;23.86;60.00;99980.31;3159580;28;20409;-66
2022/07/03 05:33:03;;;;;;;;;;;;;;;23.93;59.99;99982.25;3159831;28;19928;-66
2022/07/03 05:34:36;;;;;;;;;;;;;;;24.02;59.45;99986.66;3159819;28;19931;-66
2022/07/03 05:36:08;;;;;;;;;;;;;;;24.10;59.36;99980.56;3159584;28;19928;-66
2022/07/03 05:37:40;;;;;;;;;;;;;;;24.19;58.97;99986.78;3159853;28;19931;-66
2022/07/03 05:41:00;;;;;;;;;;;;;;;24.30;58.57;99981.25;3147707;28;19928;-67
2022/07/03 05:42:32;;;;;;;;;;;;;;;24.37;57.97;99986.78;3157902;28;20388;-67
2022/07/03 05:44:04;;;;;;;;;;;;;;;24.42;57.68;99985.38;3159074;28;19977;-67
2022/07/03 05:45:35;;;;;;;;;;;;;;;24.45;57.65;99990.38;3157249;28;19928;-66
2022/07/03 05:47:06;;;;;;;;;;;;;;;24.49;57.01;99985.56;3158630;28;19931;-66
2022/07/03 05:48:37;;;;;;;;;;;;;;;24.54;57.00;99985.97;3159187;28;20472;-66
2022/07/03 05:50:11;;;;;;;;;;;;;;;24.57;56.80;99982.16;3159206;28;20381;-66
2022/07/03 05:51:42;;;;;;;;;;;;;;;24.62;56.79;99990.53;3159449;28;20534;-66
2022/07/03 05:53:14;;;;;;;;;;;;;;;24.62;56.37;99986.03;3159632;28;19924;-66
2022/07/03 05:54:45;;;;;;;;;;;;;;;24.65;56.63;99982.22;3159464;28;19924;-66
2022/07/03 05:56:17;;;;;;;;;;;;;;;24.66;56.15;99984.72;3159309;28;20308;-66
2022/07/03 05:57:49;;;;;;;;;;;;;;;24.71;56.29;99985.09;3159642;28;19928;-66
2022/07/03 05:59:20;;;;;;;;;;;;;;;24.79;55.85;99983.47;3158916;28;19923;-66
2022/07/03 06:00:52;;;;;;;;;;;;;;;24.84;55.96;99984.66;3159570;28;20258;-66
2022/07/03 06:02:23;;;;;;;;;;;;;;;24.91;55.64;99980.41;3159500;28;19928;-66
2022/07/03 06:03:55;;;;;;;;;;;;;;;25.00;55.89;99983.13;3162175;28;19928;-66
2022/07/03 06:05:28;;;;;;;;;;;;;;;25.07;55.75;99979.66;3165826;28;20390;-67
2022/07/03 06:06:59;;;;;;;;;;;;;;;25.14;55.46;99982.53;3146868;28;19924;-67
2022/07/03 06:08:31;;;;;;;;;;;;;;;25.20;55.17;99989.91;3160250;28;20485;-66
2022/07/03 06:10:03;;;;;;;;;;;;;;;25.24;55.09;99983.28;3159117;28;20294;-66
2022/07/03 06:11:34;;;;;;;;;;;;;;;25.30;54.59;99981.81;3159351;28;19924;-67
2022/07/03 06:13:06;;;;;;;;;;;;;;;25.37;54.94;99986.31;3159307;28;19924;-66
2022/07/03 06:14:38;;;;;;;;;;;;;;;25.45;54.63;99982.03;3159011;28;20415;-66
2022/07/03 06:16:09;;;;;;;;;;;;;;;25.50;54.47;99985.88;3159214;28;20293;-67
2022/07/03 06:17:41;;;;;;;;;;;;;;;25.55;53.52;99982.72;3159061;28;19924;-66
2022/07/03 06:19:12;;;;;;;;;;;;;;;25.60;53.38;99983.06;3159120;28;19935;-67
2022/07/03 06:20:45;;;;;;;;;;;;;;;25.67;53.03;99978.75;3159483;28;19931;-67
2022/07/03 06:22:17;;;;;;;;;;;;;;;25.71;52.46;99972.13;3159218;28;19924;-66
2022/07/03 06:23:48;;;;;;;;;;;;;;;25.78;52.65;99972.28;3158893;28;19928;-66
2022/07/03 06:25:20;;;;;;;;;;;;;;;25.84;52.57;99979.66;3158924;28;19947;-66
2022/07/03 06:26:52;;;;;;;;;;;;;;;25.88;52.76;99978.31;3159540;28;19985;-66
2022/07/03 06:28:23;;;;;;;;;;;;;;;25.95;51.91;99975.88;3158837;28;19932;-66
2022/07/03 06:29:55;;;;;;;;;;;;;;;25.95;51.00;99974.03;3159050;28;20309;-66
2022/07/03 06:31:26;;;;;;;;;;;;;;;26.00;51.74;99973.50;3159044;28;19930;-66
2022/07/03 06:32:58;;;;;;;;;;;;;;;26.09;51.74;99980.56;3159319;28;20389;-67
2022/07/03 06:34:30;;;;;;;;;;;;;;;26.12;51.11;99974.03;3158932;28;20294;-66
2022/07/03 06:36:03;;;;;;;;;;;;;;;26.18;51.46;99971.56;3159074;28;19928;-66
2022/07/03 06:37:34;;;;;;;;;;;;;;;26.24;51.00;99976.22;3158791;28;19924;-67
2022/07/03 06:39:06;;;;;;;;;;;;;;;26.31;51.30;99968.38;3159269;28;19924;-66
2022/07/03 06:40:37;;;;;;;;;;;;;;;26.40;51.10;99971.88;3158609;28;19981;-66
2022/07/03 06:42:09;;;;;;;;;;;;;;;26.49;50.90;99971.72;3158833;28;19931;-66
2022/07/03 06:43:41;;;;;;;;;;;;;;;26.56;50.52;99971.88;3159185;28;19928;-66
2022/07/03 06:45:12;;;;;;;;;;;;;;;26.64;50.68;99969.22;3158366;28;19927;-67
2022/07/03 06:46:44;;;;;;;;;;;;;;;26.69;50.20;99963.38;3158325;28;20375;-66
2022/07/03 06:48:16;;;;;;;;;;;;;;;26.80;50.20;99962.16;3158704;28;19997;-66
2022/07/03 06:49:47;;;;;;;;;;;;;;;26.89;50.05;99963.84;3158961;28;19971;-66
2022/07/03 06:51:20;;;;;;;;;;;;;;;26.93;49.61;99967.84;3159047;28;19989;-66
2022/07/03 06:52:52;;;;;;;;;;;;;;;26.97;49.39;99964.63;3158828;28;19928;-66
2022/07/03 06:54:23;;;;;;;;;;;;;;;27.05;49.56;99961.09;3158652;28;19928;-66
2022/07/03 06:55:55;;;;;;;;;;;;;;;27.15;49.66;99968.94;3159027;28;19989;-66
2022/07/03 06:57:25;;;;;;;;;;;;;;;27.22;49.62;99959.25;3158728;28;19993;-66
2022/07/03 06:58:57;;;;;;;;;;;;;;;27.33;49.51;99963.38;3158879;28;19936;-66
2022/07/03 07:00:28;;;;;;;;;;;;;;;27.39;49.11;99955.50;3159001;28;19928;-66
2022/07/03 07:02:00;;;;;;;;;;;;;;;27.45;48.65;99952.13;3158604;28;19924;-67
2022/07/03 07:03:32;;;;;;;;;;;;;;;27.50;48.39;99954.25;3158565;28;19931;-66
2022/07/03 07:05:03;;;;;;;;;;;;;;;27.58;48.50;99946.19;3165045;28;19928;-66
2022/07/03 07:06:36;;;;;;;;;;;;;;;27.68;48.73;99951.31;3158845;28;19962;-66
2022/07/03 07:08:08;;;;;;;;;;;;;;;27.75;48.18;99943.44;3160227;28;19940;-67
2022/07/03 07:09:39;;;;;;;;;;;;;;;27.79;47.43;99942.94;3158272;28;19928;-66
2022/07/03 07:11:11;;;;;;;;;;;;;;;27.85;47.92;99942.22;3158679;28;19928;-66
2022/07/03 07:12:42;;;;;;;;;;;;;;;27.94;47.44;99951.03;3158696;28;19924;-66
2022/07/03 07:14:13;;;;;;;;;;;;;;;27.99;47.53;99947.81;3158150;28;20465;-66
2022/07/03 07:15:45;;;;;;;;;;;;;;;28.03;47.19;99949.13;3158409;28;19924;-66
2022/07/03 07:17:16;;;;;;;;;;;;;;;28.10;47.09;99950.06;3158747;28;19924;-66
2022/07/03 07:18:48;;;;;;;;;;;;;;;28.18;46.78;99951.84;3158516;28;19943;-66
2022/07/03 07:20:20;;;;;;;;;;;;;;;28.21;46.46;99941.59;3158492;28;20348;-66
2022/07/03 07:21:52;;;;;;;;;;;;;;;28.26;46.70;99943.75;3158270;28;19924;-66
2022/07/03 07:23:23;;;;;;;;;;;;;;;28.33;46.65;99937.47;3158455;28;19939;-67
2022/07/03 07:24:55;;;;;;;;;;;;;;;28.36;45.92;99938.97;3158730;28;19924;-66
2022/07/03 07:26:26;;;;;;;;;;;;;;;28.40;45.87;99947.50;3158220;28;20265;-66
2022/07/03 07:27:58;;;;;;;;;;;;;;;28.39;45.84;99943.13;3158224;28;19971;-66
2022/07/03 07:29:29;;;;;;;;;;;;;;;28.47;45.83;99945.78;3158319;28;19947;-67
2022/07/03 07:31:01;;;;;;;;;;;;;;;28.55;45.54;99940.34;3158273;28;19924;-67
2022/07/03 07:32:32;;;;;;;;;;;;;;;28.61;45.29;99944.97;3158310;28;19924;-67
2022/07/03 07:34:04;;;;;;;;;;;;;;;28.66;45.15;99939.91;3157950;28;19951;-66
2022/07/03 07:35:36;;;;;;;;;;;;;;;28.73;45.29;99943.50;3158396;28;20046;-66
2022/07/03 07:37:09;;;;;;;;;;;;;;;28.79;45.25;99941.94;3158086;28;19924;-67
2022/07/03 07:38:40;;;;;;;;;;;;;;;28.88;45.46;99934.66;3156127;28;20307;-66
2022/07/03 07:40:13;;;;;;;;;;;;;;;28.95;44.85;99931.03;3158147;28;19928;-67
2022/07/03 07:41:44;;;;;;;;;;;;;;;29.05;45.12;99935.28;3158358;28;19931;-66
2022/07/03 07:43:16;;;;;;;;;;;;;;;29.14;44.80;99937.72;3157908;28;19924;-67
2022/07/03 07:44:47;;;;;;;;;;;;;;;29.27;44.53;99931.69;3157912;28;19981;-66
2022/07/03 07:46:19;;;;;;;;;;;;;;;29.38;44.68;99933.88;3158283;28;20025;-67
2022/07/03 07:47:50;;;;;;;;;;;;;;;29.47;44.54;99934.59;3169586;28;19924;-66
2022/07/03 07:49:22;;;;;;;;;;;;;;;29.57;44.17;99932.44;3158675;28;20000;-67
2022/07/03 07:50:52;;;;;;;;;;;;;;;29.65;43.64;99935.03;3158126;28;19935;-66
2022/07/03 07:52:25;;;;;;;;;;;;;;;29.76;43.53;99940.91;3157893;28;19925;-67
2022/07/03 07:53:59;;;;;;;;;;;;;;;29.86;43.26;99936.09;3157878;28;19925;-66
2022/07/03 07:55:30;;;;;;;;;;;;;;;29.91;42.03;99933.66;3157972;28;19967;-66
2022/07/03 07:57:02;;;;;;;;;;;;;;;29.99;42.33;99936.19;3158085;28;19983;-67
2022/07/03 07:58:33;;;;;;;;;;;;;;;30.08;42.61;99934.22;3158110;28;19996;-66
2022/07/03 08:00:06;;;;;;;;;;;;;;;30.15;42.69;99935.13;3157554;28;19924;-67
2022/07/03 08:07:04;;;;;;;;;;;;;;;30.58;41.36;99935.88;3146130;28;20083;-64
2022/07/03 08:08:36;;;;;;;;;;;;;;;30.65;40.65;99938.63;3158538;28;20438;-64
2022/07/03 08:10:08;;;;;;;;;;;;;;;30.73;40.66;99938.50;3157713;28;19963;-65